Latest Weather Observations for Edinburgh

IDS60801

Issued at 9:42 pm CST Thursday 24 September 2020 (issued every 10 minutes, with the page automatically refreshed every 10 minutes)

About weather observations | Map of weather stations | Latest weather observations for SA | Other Formats
Station Details ID: 023083 Name: EDINBURGH RAAF Lat: -34.71 Lon: 138.62 Height: 16.54 m
Data from the previous 72 hours. | See also: Recent months at Edinburgh
Date/Time
CST
Temp
°C
App
Temp
°C
Dew
Point
°C
Rel
Hum
%
Delta-T
°C
Wind Press
QNH
hPa
Press
MSL
hPa
Rain since
9am
mm
Dir  Spd
km/h
Gust
km/h
Spd
kts
Gust
kts
24/09:30pm 9.5 4.3 5.7 77 1.7 WSW 22 30 12 16 1010.4 1010.3 5.8
24/09:00pm 9.3 3.8 5.7 78 1.6 WSW 24 33 13 18 1010.5 1010.4 5.8
24/08:30pm 9.8 3.9 5.6 75 1.9 W 26 33 14 18 1010.3 1010.2 5.6
24/08:00pm 10.0 5.1 5.2 72 2.2 W 20 30 11 16 1010.4 1010.3 5.6
24/07:30pm 10.1 4.4 5.1 71 2.3 W 24 32 13 17 1010.5 1010.4 5.6
24/07:00pm 9.5 4.5 6.4 81 1.4 WSW 22 28 12 15 1010.6 1010.5 5.6
24/06:30pm 10.3 3.8 6.6 78 1.7 WSW 30 39 16 21 1010.5 1010.4 5.2
24/06:00pm 10.8 4.3 6.6 75 2.0 WSW 30 41 16 22 1010.3 1010.2 5.2
24/05:30pm 10.7 4.4 7.2 79 1.7 WSW 30 46 16 25 1010.4 1010.3 5.2
24/05:14pm 11.1 2.7 5.8 70 2.5 WSW 39 65 21 35 1010.1 1010.0 5.2
24/05:00pm 11.7 3.4 6.2 69 2.6 WSW 39 48 21 26 1010.1 1010.0 5.2
24/04:53pm 11.9 4.6 7.2 73 2.3 WSW 35 44 19 24 1009.9 1009.8 5.2
24/04:30pm 11.7 7.0 9.1 84 1.3 WNW 24 37 13 20 1010.0 1009.9 5.2
24/04:00pm 11.4 5.8 8.6 83 1.4 WNW 28 35 15 19 1010.1 1010.0 5.2
24/03:47pm 11.4 6.3 9.1 86 1.1 WNW 26 32 14 17 1010.4 1010.3 5.0
24/03:45pm 11.4 6.7 9.1 86 1.1 WNW 24 32 13 17 1010.4 1010.3 5.0
24/03:30pm 11.1 6.3 9.0 87 1.0 WNW 24 35 13 19 1010.4 1010.3 5.0
24/03:16pm 11.0 5.4 8.6 85 1.2 NW 28 46 15 25 1010.6 1010.5 4.6
24/03:15pm 11.0 5.8 8.8 86 1.1 NW 26 46 14 25 1010.6 1010.5 4.6
24/03:00pm 11.1 4.5 8.7 85 1.2 NW 33 46 18 25 1010.9 1010.8 4.0
24/02:39pm 11.4 5.9 9.1 86 1.1 NW 28 50 15 27 1011.0 1010.9 3.4
24/02:38pm 11.4 6.3 9.1 86 1.1 NW 26 50 14 27 1011.0 1010.9 3.4
24/02:30pm 11.3 6.3 9.6 89 0.9 NW 26 37 14 20 1011.1 1011.0 3.0
24/02:20pm 10.9 6.1 8.8 87 1.0 WNW 24 32 13 17 1011.5 1011.4 2.8
24/02:06pm 10.8 4.2 8.4 85 1.2 WNW 33 52 18 28 1011.4 1011.3 1.6
24/02:00pm 10.9 3.4 8.0 82 1.4 W 37 52 20 28 1011.6 1011.5 1.2
24/01:30pm 13.4 6.4 7.0 65 3.1 WNW 33 44 18 24 1011.6 1011.5 0.0
24/01:00pm 14.3 7.3 6.2 58 3.9 NW 32 48 17 26 1012.0 1012.0 0.0
24/12:30pm 14.7 6.9 6.5 58 4.0 WNW 37 50 20 27 1012.7 1012.7 0.0
24/12:00pm 14.7 7.4 7.0 60 3.8 NW 35 44 19 24 1013.5 1013.5 0.0
24/11:30am 14.1 6.7 6.9 62 3.5 NW 35 44 19 24 1014.2 1014.2 0.0
24/11:00am 13.8 7.0 6.9 63 3.3 WNW 32 39 17 21 1014.8 1014.8 0.0
24/10:30am 13.1 6.3 6.9 66 3.0 WNW 32 39 17 21 1015.5 1015.5 0.0
24/10:00am 12.8 7.3 7.5 70 2.6 WNW 26 35 14 19 1016.3 1016.3 0.0
24/09:30am 12.3 6.6 8.2 76 2.0 WNW 28 37 15 20 1016.7 1016.7 0.0
24/09:20am 12.2 6.2 7.1 71 2.5 WNW 28 39 15 21 1016.7 1016.7 0.0
24/09:00am 12.0 8.9 9.0 82 1.5 WNW 15 20 8 11 1017.0 1017.0 5.6
24/08:53am 11.4 8.1 9.7 89 0.9 WNW 17 24 9 13 1017.1 1017.1 5.6
24/08:37am 10.3 7.5 8.7 90 0.8 NNW 13 20 7 11 1017.5 1017.5 5.4
24/08:30am 10.4 7.7 8.8 90 0.8 NNW 13 19 7 10 1017.4 1017.4 5.0
24/08:00am 10.4 6.8 8.5 88 0.9 NNW 17 24 9 13 1017.7 1017.7 4.4
24/07:30am 9.7 7.1 7.6 87 1.0 NW 11 13 6 7 1017.6 1017.6 4.2
24/07:15am 9.5 5.1 7.4 87 1.0 WNW 20 28 11 15 1017.5 1017.5 4.2
24/07:03am 9.4 4.8 8.0 91 0.7 NNW 22 32 12 17 1017.6 1017.6 4.0
24/07:00am 9.3 5.0 7.9 91 0.7 NNW 20 32 11 17 1017.6 1017.6 3.8
24/06:30am 9.3 6.3 7.7 90 0.8 NNW 13 17 7 9 1017.4 1017.4 2.8
24/06:00am 9.3 6.7 7.7 90 0.8 NW 11 17 6 9 1017.3 1017.3 2.8
24/05:30am 9.5 5.8 8.1 91 0.7 NW 17 24 9 13 1017.4 1017.4 2.4
24/05:00am 9.5 6.6 8.1 91 0.7 NNW 13 17 7 9 1017.5 1017.5 2.0
24/04:30am 9.3 6.3 7.9 91 0.7 N 13 17 7 9 1017.7 1017.7 2.0
24/04:00am 9.0 6.0 7.5 90 0.7 NNW 13 17 7 9 1017.8 1017.8 2.0
24/03:30am 10.1 7.3 6.8 80 1.5 N 11 17 6 9 1018.0 1018.0 2.0
24/03:00am 10.3 9.1 6.5 77 1.8 WNW 2 9 1 5 1018.1 1018.1 2.0
24/02:30am 10.2 8.0 6.0 75 1.9 N 7 9 4 5 1018.4 1018.4 2.0
24/02:00am 10.3 9.3 5.7 73 2.1 CALM 0 0 0 0 1018.7 1018.7 2.0
24/01:30am 10.6 9.0 4.7 67 2.6 S 2 6 1 3 1019.1 1019.1 2.0
24/01:00am 10.6 8.1 4.7 67 2.7 SW 7 9 4 5 1019.5 1019.5 2.0
24/12:30am 10.3 7.4 4.7 68 2.5 SW 9 11 5 6 1019.8 1019.8 2.0
24/12:00am 10.0 6.3 4.4 68 2.5 SSW 13 20 7 11 1020.0 1020.0 2.0
 
Date/Time
CST
Temp
°C
App
Temp
°C
Dew
Point
°C
Rel
Hum
%
Delta-T
°C
Wind Press
QNH
hPa
Press
MSL
hPa
Rain since
9am
mm
Dir  Spd
km/h
Gust
km/h
Spd
kts
Gust
kts
23/11:30pm 9.9 7.0 4.7 70 2.3 SSW 9 11 5 6 1020.2 1020.2 2.0
23/11:00pm 10.2 6.4 4.1 66 2.7 SSW 13 17 7 9 1020.4 1020.4 2.0
23/10:30pm 10.9 7.1 4.1 63 3.0 SSW 13 17 7 9 1020.6 1020.6 2.0
23/10:00pm 11.5 7.3 5.8 68 2.7 SSW 17 19 9 10 1020.9 1020.9 2.0
23/09:30pm 11.8 8.1 6.5 70 2.5 SW 15 20 8 11 1021.2 1021.2 2.0
23/09:00pm 11.8 6.8 4.8 62 3.2 WSW 20 26 11 14 1021.0 1021.0 2.0
23/08:30pm 12.1 5.5 4.3 59 3.5 WSW 28 37 15 20 1020.9 1020.9 2.0
23/08:00pm 12.3 6.7 5.5 63 3.2 WSW 24 32 13 17 1020.8 1020.8 2.0
23/07:30pm 11.9 6.3 5.5 65 3.0 WSW 24 32 13 17 1020.7 1020.7 2.0
23/07:00pm 12.0 6.8 5.6 65 3.0 WSW 22 32 12 17 1020.5 1020.5 2.0
23/06:30pm 12.2 7.1 5.8 65 3.0 WSW 22 30 12 16 1020.3 1020.3 2.0
23/06:00pm 12.7 8.1 6.5 66 2.9 SW 20 32 11 17 1020.1 1020.1 2.0
23/05:30pm 13.3 6.4 6.4 63 3.3 SW 32 41 17 22 1020.0 1020.0 2.0
23/05:00pm 14.1 6.6 4.4 52 4.5 SW 33 44 18 24 1019.7 1019.7 2.0
23/04:30pm 14.6 6.9 5.4 54 4.3 WSW 35 46 19 25 1019.6 1019.6 2.0
23/04:00pm 14.8 6.2 4.5 50 4.8 WSW 39 50 21 27 1019.2 1019.2 2.0
23/03:30pm 15.1 6.6 5.3 52 4.6 WSW 39 46 21 25 1019.2 1019.2 2.0
23/03:00pm 14.6 6.1 5.1 53 4.4 SW 39 48 21 26 1019.2 1019.2 2.0
23/02:30pm 15.4 7.3 5.3 51 4.8 SW 37 50 20 27 1019.3 1019.3 2.0
23/02:00pm 15.6 6.9 5.8 52 4.7 SW 41 50 22 27 1019.2 1019.2 2.0
23/01:30pm 15.6 7.4 6.6 55 4.4 SW 39 46 21 25 1019.3 1019.3 2.0
23/01:00pm 15.3 8.6 8.3 63 3.5 WSW 33 44 18 24 1019.6 1019.6 2.0
23/12:30pm 14.4 7.5 7.2 62 3.5 SW 33 50 18 27 1019.7 1019.7 2.0
23/12:00pm 13.7 8.0 8.3 70 2.7 SW 28 43 15 23 1019.6 1019.6 2.0
23/11:30am 13.3 9.3 10.5 83 1.5 WSW 22 32 12 17 1019.9 1019.9 2.0
23/11:04am 13.2 8.6 9.6 79 1.8 WSW 24 32 13 17 1019.8 1019.8 2.0
23/11:00am 13.0 8.9 10.2 83 1.4 WSW 22 28 12 15 1019.8 1019.8 2.0
23/10:43am 11.9 6.0 9.1 83 1.4 WSW 30 43 16 23 1020.0 1020.0 1.2
23/10:30am 13.6 8.9 9.1 74 2.3 WSW 24 32 13 17 1019.9 1019.9 1.0
23/10:21am 13.0 8.5 10.0 82 1.5 WSW 24 30 13 16 1019.9 1019.9 1.0
23/10:02am 11.1 4.7 8.5 84 1.3 WSW 32 44 17 24 1019.9 1019.9 0.6
23/10:00am 11.4 5.3 8.1 80 1.6 WSW 30 44 16 24 1019.8 1019.8 0.2
23/09:30am 13.0 7.1 9.1 77 2.0 WSW 30 39 16 21 1019.7 1019.7 0.0
23/09:00am 11.6 6.3 9.7 88 1.0 W 28 37 15 20 1019.7 1019.7 2.0
23/08:30am 10.9 5.6 8.5 85 1.2 WSW 26 37 14 20 1019.3 1019.3 1.8
23/08:00am 12.7 6.1 7.8 72 2.4 W 32 39 17 21 1019.0 1019.0 1.8
23/07:30am 12.0 6.6 7.9 76 2.0 W 26 33 14 18 1018.9 1018.9 1.8
23/07:00am 11.8 5.5 7.3 74 2.2 WSW 30 37 16 20 1018.5 1018.5 1.8
23/06:30am 11.5 6.0 7.4 76 2.0 W 26 35 14 19 1018.2 1018.2 1.8
23/06:00am 11.3 5.7 7.0 75 2.0 WSW 26 33 14 18 1017.9 1017.9 1.8
23/05:30am 11.5 5.6 7.6 77 1.9 WSW 28 39 15 21 1017.5 1017.5 1.8
23/05:00am 11.1 5.9 7.4 78 1.8 W 24 32 13 17 1017.3 1017.3 1.8
23/04:30am 11.4 5.5 7.7 78 1.8 W 28 39 15 21 1017.1 1017.1 1.8
23/04:00am 11.4 4.6 6.9 74 2.1 W 32 39 17 21 1016.9 1016.9 1.8
23/03:30am 11.3 5.3 7.2 76 2.0 W 28 35 15 19 1016.9 1016.9 1.8
23/03:00am 11.3 5.5 7.8 79 1.7 W 28 35 15 19 1016.9 1016.9 1.8
23/02:30am 11.8 5.6 7.7 76 2.0 W 30 39 16 21 1016.9 1016.9 1.8
23/02:00am 11.5 5.6 7.6 77 1.9 W 28 35 15 19 1017.1 1017.1 1.8
23/01:30am 11.5 6.5 8.2 80 1.6 W 24 32 13 17 1017.2 1017.2 1.8
23/01:00am 11.5 5.7 8.0 79 1.7 W 28 35 15 19 1017.4 1017.4 1.8
23/12:30am 11.4 6.1 8.4 82 1.5 W 26 35 14 19 1017.5 1017.5 1.8
23/12:00am 11.2 6.4 8.9 86 1.1 W 24 32 13 17 1017.6 1017.6 1.8
 
Date/Time
CST
Temp
°C
App
Temp
°C
Dew
Point
°C
Rel
Hum
%
Delta-T
°C
Wind Press
QNH
hPa
Press
MSL
hPa
Rain since
9am
mm
Dir  Spd
km/h
Gust
km/h
Spd
kts
Gust
kts
22/11:30pm 11.2 6.4 8.9 86 1.1 W 24 32 13 17 1017.7 1017.7 1.8
22/11:24pm 11.0 5.8 8.8 86 1.1 W 26 32 14 17 1017.7 1017.7 1.8
22/11:06pm 10.4 2.4 7.6 83 1.3 W 39 65 21 35 1017.7 1017.7 1.4
22/11:02pm 12.2 5.2 6.7 69 2.6 W 33 65 18 35 1017.7 1017.7 0.6
22/11:00pm 12.5 5.9 7.8 73 2.3 W 32 48 17 26 1017.7 1017.7 0.6
22/10:30pm 12.6 7.7 8.3 75 2.1 W 24 32 13 17 1017.6 1017.6 0.6
22/10:00pm 11.9 7.9 8.4 79 1.7 W 19 24 10 13 1017.9 1017.9 0.6
22/09:30pm 12.3 7.0 8.6 78 1.8 W 26 35 14 19 1017.9 1017.9 0.6
22/09:00pm 12.6 6.1 8.1 74 2.2 W 32 43 17 23 1017.7 1017.7 0.6
22/08:30pm 12.8 7.0 8.1 73 2.3 WSW 28 39 15 21 1017.4 1017.4 0.6
22/08:00pm 13.0 7.2 7.9 71 2.5 W 28 39 15 21 1017.0 1017.0 0.6
22/07:30pm 13.0 6.3 8.3 73 2.3 W 33 46 18 25 1016.7 1016.7 0.6
22/07:00pm 13.5 7.0 8.1 70 2.7 W 32 44 17 24 1016.1 1016.1 0.6
22/06:30pm 12.9 8.0 8.4 74 2.2 W 24 30 13 16 1015.9 1015.9 0.6
22/06:00pm 13.5 7.3 7.7 68 2.9 W 30 39 16 21 1015.6 1015.6 0.6
22/05:30pm 14.0 7.5 8.2 68 2.9 W 32 43 17 23 1015.3 1015.3 0.6
22/05:00pm 14.7 8.2 8.9 68 2.9 WNW 33 43 18 23 1014.9 1014.9 0.6
22/04:30pm 14.6 7.6 8.3 66 3.2 W 35 44 19 24 1014.7 1014.7 0.6
22/04:00pm 15.6 10.3 9.7 68 3.1 W 28 35 15 19 1014.5 1014.5 0.6
22/03:30pm 14.0 6.9 9.6 75 2.3 W 37 46 20 25 1014.5 1014.5 0.6
22/03:00pm 13.3 4.7 10.3 82 1.6 W 46 67 25 36 1014.4 1014.4 0.6
22/02:55pm 15.1 7.8 8.8 66 3.2 WNW 37 56 20 30 1014.1 1014.1 0.4
22/02:30pm 16.0 7.9 8.7 62 3.7 W 41 54 22 29 1014.0 1014.0 0.4
22/02:00pm 16.2 8.3 9.4 64 3.5 WNW 41 52 22 28 1013.9 1013.9 0.4
22/01:49pm 15.4 7.9 9.5 68 3.1 W 39 52 21 28 1013.8 1013.8 0.4
22/01:30pm 13.4 5.1 10.2 81 1.7 WSW 44 59 24 32 1013.9 1013.9 0.4
22/01:22pm 13.8 6.1 10.0 78 2.0 WSW 41 59 22 32 1013.6 1013.6 0.4
22/01:14pm 15.6 8.1 9.3 66 3.2 W 39 52 21 28 1013.5 1013.5 0.4
22/01:00pm 15.9 7.7 8.4 61 3.8 W 41 54 22 29 1013.6 1013.6 0.2
22/12:30pm 13.6 4.6 10.2 80 1.8 W 48 67 26 36 1013.7 1013.7 0.2
22/12:23pm 15.7 6.7 8.7 63 3.6 W 46 67 25 36 1013.5 1013.5 0.2
22/12:00pm 16.7 7.9 7.9 56 4.4 WNW 44 57 24 31 1013.4 1013.4 0.2
22/11:30am 16.6 7.2 8.6 59 4.1 W 48 59 26 32 1013.3 1013.3 0.2
22/11:00am 15.8 6.7 8.5 62 3.7 WNW 46 59 25 32 1013.0 1013.0 0.2
22/10:30am 15.2 7.0 9.6 69 2.9 WNW 43 54 23 29 1013.1 1013.1 0.2
22/10:00am 14.0 6.0 9.0 72 2.5 WNW 41 54 22 29 1013.0 1013.0 0.2
22/09:30am 12.5 6.8 9.9 84 1.3 WNW 30 37 16 20 1013.0 1013.0 0.2
22/09:00am 13.1 8.3 10.3 83 1.5 W 26 37 14 20 1012.7 1012.7 -
22/08:54am 12.1 7.3 10.3 89 0.9 W 26 35 14 19 1012.8 1012.8 -
22/08:36am 10.9 4.3 8.7 86 1.1 W 33 56 18 30 1012.7 1012.7 -
22/08:30am 11.4 5.8 10.0 91 0.7 W 30 37 16 20 1012.5 1012.5 -
22/08:12am 11.7 5.5 9.4 86 1.2 WNW 32 41 17 22 1012.3 1012.3 -
22/08:00am 12.6 6.4 9.4 81 1.6 WNW 32 41 17 22 1012.0 1012.0 -
22/07:30am 12.1 5.2 8.9 81 1.6 WNW 35 54 19 29 1011.7 1011.6 -
22/07:29am 12.2 5.3 8.9 80 1.7 WNW 35 54 19 29 1011.7 1011.6 -
22/07:00am 11.8 6.0 9.4 85 1.2 WNW 30 44 16 24 1011.3 1011.2 -
22/06:30am 11.8 6.5 8.6 81 1.6 NW 26 33 14 18 1011.0 1010.9 -
22/06:00am 11.0 6.2 8.8 86 1.1 WNW 24 33 13 18 1010.9 1010.8 -
22/05:30am 11.3 4.8 8.9 85 1.2 WNW 33 46 18 25 1010.5 1010.4 -
22/05:00am 11.6 6.4 8.8 83 1.4 NW 26 35 14 19 1010.0 1009.9 -
22/04:34am 11.7 5.3 8.6 81 1.5 NW 32 50 17 27 1009.7 1009.6 -
22/04:30am 11.7 5.7 8.6 81 1.5 NW 30 39 16 21 1009.7 1009.6 -
22/04:00am 11.5 5.2 8.9 84 1.3 NW 32 43 17 23 1009.5 1009.4 -
22/03:30am 12.4 7.0 8.1 75 2.1 NW 26 35 14 19 1009.4 1009.3 -
22/03:00am 12.9 5.3 7.6 70 2.6 WNW 37 50 20 27 1009.3 1009.2 0.0
22/02:40am 12.5 5.9 7.6 72 2.4 NW 32 50 17 27 1009.2 1009.1 -
22/02:30am 12.7 6.1 7.6 71 2.5 NW 32 43 17 23 1009.1 1009.0 -
22/02:00am 12.7 6.1 7.8 72 2.4 NW 32 39 17 21 1009.4 1009.3 -
22/01:30am 12.6 6.8 7.9 73 2.3 NW 28 37 15 20 1009.6 1009.5 -
22/01:00am 12.2 7.6 8.1 76 2.0 NW 22 30 12 16 1009.6 1009.5 -
22/12:30am 12.5 7.1 8.2 75 2.1 NW 26 33 14 18 1009.7 1009.6 -
22/12:00am 12.8 6.9 7.5 70 2.6 WNW 28 37 15 20 1009.6 1009.5 -
 
Date/Time
CST
Temp
°C
App
Temp
°C
Dew
Point
°C
Rel
Hum
%
Delta-T
°C
Wind Press
QNH
hPa
Press
MSL
hPa
Rain since
9am
mm
Dir  Spd
km/h
Gust
km/h
Spd
kts
Gust
kts
21/11:30pm 12.8 6.7 8.3 74 2.2 WNW 30 39 16 21 1009.5 1009.4 -
21/11:00pm 13.3 6.2 8.2 71 2.5 WNW 35 48 19 26 1009.5 1009.4 -
21/10:30pm 13.2 7.8 9.5 78 1.9 WNW 28 39 15 21 1009.5 1009.4 -
21/10:14pm 12.9 5.3 9.0 77 2.0 W 39 57 21 31 1009.3 1009.2 -
21/10:00pm 13.2 4.1 8.5 73 2.3 WNW 46 63 25 34 1009.1 1009.0 -

Other formats

Comma delimited format used in spreadsheet applications
http://www.bom.gov.au/fwo/IDS60801/IDS60801.95676.axf

JavaScript Object Notation format (JSON) in row-major order
http://www.bom.gov.au/fwo/IDS60801/IDS60801.95676.json

Data quality

Most of these data are generated automatically and are frequently updated. Quality checks on data are not normally performed. It is possible for incorrect values to appear. Refer to information at About Latest Weather Observations and please check the disclaimer before using these data.